createdAt,value
2023-04-29T00:02:08.824Z,2.22
2023-04-29T00:04:38.543Z,2.22
2023-04-29T00:07:09.101Z,1.23
2023-04-29T00:09:38.753Z,2.60
2023-04-29T00:12:08.432Z,3.38
2023-04-29T00:14:37.938Z,2.38
2023-04-29T00:17:08.776Z,1.13
2023-04-29T00:19:38.224Z,1.73
2023-04-29T00:22:07.856Z,0.88
2023-04-29T00:24:37.521Z,1.35
2023-04-29T00:27:06.948Z,1.15
2023-04-29T00:29:36.754Z,2.38
2023-04-29T00:32:08.795Z,1.10
2023-04-29T00:34:38.231Z,0.57
2023-04-29T00:37:07.659Z,1.02
2023-04-29T00:39:37.204Z,1.52
2023-04-29T00:42:06.836Z,0.75
2023-04-29T00:44:36.331Z,3.30
2023-04-29T00:47:06.033Z,1.80
2023-04-29T00:49:36.873Z,1.80
2023-04-29T00:52:08.108Z,1.40
2023-04-29T00:54:38.769Z,2.33
2023-04-29T00:57:08.851Z,3.35
2023-04-29T00:59:38.988Z,1.10
2023-04-29T01:02:08.459Z,2.22
2023-04-29T01:04:39.533Z,3.08
2023-04-29T01:07:17.430Z,5.70
2023-04-29T01:10:03.237Z,1.20
2023-04-29T01:12:42.544Z,1.75
2023-04-29T01:15:26.167Z,1.00
2023-04-29T01:18:02.389Z,1.60
2023-04-29T01:20:34.936Z,0.95
2023-04-29T01:23:04.578Z,1.30
2023-04-29T01:25:35.809Z,1.50
2023-04-29T01:28:24.604Z,1.38
2023-04-29T01:31:06.389Z,1.63
2023-04-29T01:33:52.351Z,3.45
2023-04-29T01:36:36.997Z,3.08
2023-04-29T01:39:16.053Z,2.22
2023-04-29T01:41:59.617Z,1.52
2023-04-29T01:44:34.167Z,3.72
2023-04-29T01:47:04.962Z,1.73
2023-04-29T01:49:41.571Z,1.42
2023-04-29T01:52:11.106Z,1.98
2023-04-29T01:54:41.943Z,1.35
2023-04-29T01:57:12.962Z,3.55
2023-04-29T02:00:03.320Z,1.55
2023-04-29T02:02:49.757Z,1.65
2023-04-29T02:05:42.138Z,2.17
2023-04-29T02:08:11.613Z,2.05
2023-04-29T02:10:54.885Z,1.50
2023-04-29T02:13:45.882Z,1.95
2023-04-29T02:16:17.669Z,5.32
2023-04-29T02:18:54.904Z,2.95
2023-04-29T02:21:24.724Z,1.80
2023-04-29T02:23:55.545Z,2.08
2023-04-29T02:26:26.904Z,2.42
2023-04-29T02:28:59.982Z,3.10
2023-04-29T02:31:29.950Z,2.40
2023-04-29T02:34:00.368Z,2.42
2023-04-29T02:36:29.865Z,3.28
2023-04-29T02:39:00.564Z,2.15
2023-04-29T02:41:30.047Z,7.00
2023-04-29T02:44:01.296Z,3.97
2023-04-29T02:46:32.804Z,2.28
2023-04-29T02:49:02.704Z,2.28
2023-04-29T02:51:32.384Z,2.45
2023-04-29T02:54:02.266Z,2.10
2023-04-29T02:56:31.726Z,2.33
2023-04-29T02:59:02.523Z,2.63
2023-04-29T03:01:32.363Z,2.08
2023-04-29T03:04:02.157Z,3.35
2023-04-29T03:06:32.566Z,2.35
2023-04-29T03:09:02.118Z,3.05
2023-04-29T03:11:31.617Z,3.22
2023-04-29T03:14:02.732Z,2.50
2023-04-29T03:16:32.807Z,2.95
2023-04-29T03:19:02.376Z,2.58
2023-04-29T03:21:31.852Z,2.50
2023-04-29T03:24:01.773Z,2.35
2023-04-29T03:26:36.228Z,3.03
2023-04-29T03:29:08.310Z,2.30
2023-04-29T03:31:38.056Z,2.53
2023-04-29T03:34:07.584Z,3.20
2023-04-29T03:36:41.179Z,3.53
2023-04-29T03:39:11.902Z,4.32
2023-04-29T03:41:41.500Z,2.55
2023-04-29T03:44:12.998Z,3.03
2023-04-29T03:46:42.683Z,2.90
2023-04-29T03:49:12.238Z,2.55
2023-04-29T03:51:41.870Z,2.53
2023-04-29T03:54:16.894Z,3.17
2023-04-29T03:56:46.565Z,3.88
2023-04-29T03:59:17.422Z,4.00
2023-04-29T04:01:47.743Z,4.40
2023-04-29T04:04:17.697Z,3.22
2023-04-29T04:06:51.596Z,2.73
2023-04-29T04:09:23.372Z,3.60
2023-04-29T04:11:52.859Z,3.15
2023-04-29T04:14:24.501Z,3.17
2023-04-29T04:16:54.794Z,3.35
2023-04-29T04:19:24.375Z,3.80
2023-04-29T04:21:53.979Z,7.95
2023-04-29T04:24:24.110Z,2.15
2023-04-29T04:26:53.630Z,2.58
2023-04-29T04:29:34.205Z,6.30
2023-04-29T04:32:13.945Z,3.25
2023-04-29T04:34:43.441Z,4.25
2023-04-29T04:37:12.980Z,2.83
2023-04-29T04:39:43.646Z,3.60
2023-04-29T04:42:15.896Z,3.63
2023-04-29T04:44:46.858Z,4.50
2023-04-29T04:47:27.812Z,3.13
2023-04-29T04:50:14.179Z,3.35
2023-04-29T04:52:43.691Z,4.47
2023-04-29T04:55:33.499Z,4.03
2023-04-29T04:58:03.395Z,5.10
2023-04-29T05:00:34.259Z,4.43
2023-04-29T05:03:03.925Z,3.33
2023-04-29T05:05:35.169Z,5.10
2023-04-29T05:08:05.057Z,4.75
2023-04-29T05:10:40.469Z,3.58
2023-04-29T05:13:10.468Z,4.95
2023-04-29T05:15:41.995Z,4.07
2023-04-29T05:18:12.931Z,4.20
2023-04-29T05:20:45.394Z,4.10
2023-04-29T06:34:12.486Z,9.13
2023-04-29T06:36:53.058Z,8.73
2023-04-29T06:39:34.912Z,7.15
2023-04-29T06:42:24.718Z,7.28
2023-04-29T06:45:14.508Z,6.63
2023-04-29T06:47:58.563Z,6.15
2023-04-29T06:50:50.354Z,7.20
2023-04-29T06:53:20.136Z,7.63
2023-04-29T06:55:50.178Z,7.20
2023-04-29T06:58:20.791Z,5.65
2023-04-29T07:00:53.436Z,10.85
2023-04-29T07:03:25.426Z,8.50
2023-04-29T07:05:56.426Z,6.25
2023-04-29T07:08:26.468Z,6.55
2023-04-29T07:10:57.322Z,6.63
2023-04-29T07:13:27.226Z,6.05
2023-04-29T07:15:56.929Z,7.60
2023-04-29T07:18:26.384Z,7.28
2023-04-29T07:21:02.247Z,7.00
2023-04-29T07:23:31.820Z,5.20
2023-04-29T07:26:10.473Z,5.70
2023-04-29T07:28:40.380Z,5.93
2023-04-29T07:31:12.291Z,6.22
2023-04-29T07:33:41.808Z,5.78
2023-04-29T07:36:14.210Z,5.95
2023-04-29T07:38:43.780Z,7.00
2023-04-29T07:41:13.854Z,6.07
2023-04-29T07:43:43.591Z,5.80
2023-04-29T07:46:13.179Z,7.18
2023-04-29T07:48:42.743Z,4.95
2023-04-29T07:51:16.575Z,7.53
2023-04-29T07:53:46.137Z,5.10
2023-04-29T07:56:16.287Z,6.45
2023-04-29T07:58:45.989Z,5.40
2023-04-29T08:01:15.665Z,3.97
2023-04-29T08:03:45.817Z,3.97
2023-04-29T08:06:20.736Z,4.00
2023-04-29T08:08:50.313Z,5.50
2023-04-29T08:11:24.581Z,4.55
2023-04-29T08:13:54.762Z,3.75
2023-04-29T08:16:26.189Z,4.15
2023-04-29T08:18:56.168Z,6.40
2023-04-29T08:21:27.672Z,4.55
2023-04-29T08:23:57.208Z,3.88
2023-04-29T08:26:27.402Z,4.57
2023-04-29T08:28:56.841Z,2.83
2023-04-29T08:31:26.936Z,3.15
2023-04-29T08:33:58.620Z,2.72
2023-04-29T08:36:29.959Z,2.72
2023-04-29T08:38:59.550Z,2.50
2023-04-29T08:41:29.024Z,5.15
2023-04-29T08:44:00.791Z,3.28
2023-04-29T08:46:30.516Z,3.28
2023-04-29T08:49:01.585Z,3.35
2023-04-29T08:51:34.555Z,3.85
2023-04-29T08:54:04.170Z,2.83
2023-04-29T08:56:34.679Z,3.95
2023-04-29T08:59:06.672Z,4.05
2023-04-29T09:01:41.920Z,2.80
2023-04-29T09:04:31.283Z,3.58
2023-04-29T09:07:03.274Z,2.72
2023-04-29T09:09:34.098Z,4.90
2023-04-29T09:12:03.693Z,2.85
2023-04-29T09:14:34.827Z,3.55
2023-04-29T09:17:04.435Z,2.13
2023-04-29T09:19:36.221Z,2.15
2023-04-29T09:22:08.290Z,2.38
2023-04-29T09:24:38.524Z,2.83
2023-04-29T09:27:09.215Z,2.65
2023-04-29T09:29:39.303Z,2.28
2023-04-29T09:32:22.255Z,3.20
2023-04-29T09:37:29.602Z,2.55
2023-04-29T09:39:59.194Z,4.30
2023-04-29T09:42:28.674Z,1.55
2023-04-29T09:44:58.090Z,2.08
2023-04-29T09:47:32.878Z,1.40
2023-04-29T09:50:16.283Z,2.50
2023-04-29T09:52:48.082Z,2.90
2023-04-29T09:55:17.963Z,1.52
2023-04-29T09:57:47.415Z,2.03
2023-04-29T10:00:17.656Z,2.13
2023-04-29T10:02:50.049Z,2.92
2023-04-29T10:05:23.113Z,4.03
2023-04-29T10:10:25.701Z,2.42
2023-04-29T10:12:56.167Z,2.97
2023-04-29T10:15:37.686Z,2.72
2023-04-29T10:18:21.579Z,5.07
2023-04-29T10:20:52.000Z,2.50
2023-04-29T10:23:26.938Z,5.00
2023-04-29T10:25:58.771Z,3.33
2023-04-29T10:28:32.666Z,3.45
2023-04-29T10:31:04.171Z,2.65
2023-04-29T10:33:34.530Z,2.28
2023-04-29T10:36:05.176Z,2.50
2023-04-29T10:38:44.039Z,1.83
2023-04-29T10:41:25.626Z,1.98
2023-04-29T10:43:56.142Z,3.97
2023-04-29T10:46:27.813Z,2.63
2023-04-29T10:49:02.620Z,3.63
2023-04-29T10:51:35.556Z,4.97
2023-04-29T10:54:11.697Z,2.90
2023-04-29T10:56:50.318Z,3.92
2023-04-29T10:59:48.901Z,1.50
2023-04-29T11:02:20.005Z,3.17
2023-04-29T11:05:09.661Z,2.08
2023-04-29T11:07:39.301Z,5.00
2023-04-29T11:10:10.872Z,2.17
2023-04-29T11:12:40.393Z,2.22
2023-04-29T11:15:11.538Z,2.92
2023-04-29T11:17:46.560Z,2.80
2023-04-29T11:20:16.688Z,3.40
2023-04-29T11:22:53.602Z,1.30
2023-04-29T11:25:28.466Z,1.98
2023-04-29T11:27:59.546Z,2.25
2023-04-29T11:30:31.359Z,1.20
2023-04-29T11:33:01.392Z,2.17
2023-04-29T11:35:32.356Z,1.10
2023-04-29T11:38:02.001Z,1.10
2023-04-29T11:40:34.623Z,2.63
2023-04-29T11:43:04.601Z,2.22
2023-04-29T11:45:38.055Z,1.90
2023-04-29T11:48:07.649Z,1.75
2023-04-29T11:50:37.218Z,1.90
2023-04-29T11:53:06.727Z,1.30
2023-04-29T11:55:37.552Z,1.55
2023-04-29T11:58:07.146Z,1.23
2023-04-29T12:00:36.952Z,2.83
2023-04-29T12:03:15.227Z,1.83
2023-04-29T12:05:49.635Z,2.10
2023-04-29T12:08:21.675Z,3.13
2023-04-29T12:10:53.858Z,4.80
2023-04-29T12:13:26.449Z,6.05
2023-04-29T12:15:57.389Z,6.38
2023-04-29T12:18:27.795Z,2.50
2023-04-29T12:20:58.403Z,6.28
2023-04-29T12:23:28.053Z,3.38
2023-04-29T12:26:01.136Z,6.90
2023-04-29T12:28:31.019Z,1.65
2023-04-29T12:31:01.753Z,1.30
2023-04-29T12:33:31.692Z,1.95
2023-04-29T12:36:02.036Z,1.73
2023-04-29T12:38:32.779Z,2.58
2023-04-29T12:41:04.485Z,2.25
2023-04-29T12:43:34.835Z,1.15
2023-04-29T12:46:06.242Z,1.58
2023-04-29T12:48:38.679Z,1.55
2023-04-29T12:51:11.639Z,3.13
2023-04-29T12:53:41.258Z,0.75
2023-04-29T12:56:14.224Z,1.65
2023-04-29T12:58:43.793Z,1.17
2023-04-29T13:01:16.592Z,0.98
2023-04-29T13:03:49.632Z,1.55
2023-04-29T13:06:19.352Z,1.00
2023-04-29T13:08:48.806Z,0.98
2023-04-29T13:11:20.196Z,1.90
2023-04-29T13:13:49.729Z,1.45
2023-04-29T13:16:19.639Z,0.93
2023-04-29T13:19:01.828Z,1.60
2023-04-29T13:21:38.262Z,1.98
2023-04-29T13:24:08.371Z,1.35
2023-04-29T13:26:39.496Z,1.05
2023-04-29T13:29:08.945Z,1.55
2023-04-29T13:31:38.461Z,0.75
2023-04-29T13:34:09.517Z,2.55
2023-04-29T13:36:39.270Z,1.58
2023-04-29T13:39:08.897Z,2.50
2023-04-29T13:41:43.842Z,1.98
2023-04-29T13:44:24.912Z,1.67
2023-04-29T13:47:01.569Z,1.23
2023-04-29T13:50:02.024Z,2.28
2023-04-29T13:58:20.615Z,0.90
2023-04-29T14:00:54.280Z,0.70
2023-04-29T14:03:35.640Z,2.90
2023-04-29T14:06:07.306Z,1.42
2023-04-29T14:08:36.995Z,1.35
2023-04-29T14:11:07.192Z,0.57
2023-04-29T14:13:38.071Z,1.33
2023-04-29T14:16:09.432Z,0.98
2023-04-29T14:18:39.025Z,3.38
2023-04-29T14:21:08.910Z,0.85
2023-04-29T14:23:38.534Z,1.35
2023-04-29T14:26:23.175Z,0.70
2023-04-29T14:28:59.703Z,1.40
2023-04-29T14:34:01.213Z,1.20
2023-04-29T14:36:32.563Z,0.98
2023-04-29T23:36:27.623Z,7.03
2023-04-29T23:38:57.219Z,7.72
2023-04-29T23:41:26.802Z,8.40
2023-04-29T23:44:00.885Z,6.47
2023-04-29T23:46:30.732Z,7.68
2023-04-29T23:49:00.323Z,6.57
2023-04-29T23:51:32.663Z,7.90
2023-04-29T23:54:02.136Z,5.38
2023-04-29T23:56:33.589Z,6.88
2023-04-29T23:59:03.063Z,6.80
